Gunilla — SERW — position and weather

sailwx.info

Track history (hours):
 
Tides and Currents Weather Stations Pressure Air Temp Water Temp Dewpoint Dewpoint Depression Visibility Wind Speed Wind Dir Waves Ship Positions

Gunilla (Sweden)

Ship's website: http://www.gunilla.nu/engelsk/frameset_english.htm

Last reported at 2020-Mar-24 10:00 UTC. Time now 2020-Apr-06 12:18 UTC.
Position N 26°08' W 079°33'.
Warning: this ship's position is 13 days out of date.

Length 49.4 m; beam 8.4 m; draft 2.7 m.

Type: Sailing vessel. MMSI: 265318000.

Date/timePositionNaut miles runAvg speedWind from/ knotsBaromVisibWave heightAir tempDewpointWater temp
2020-Mar-24 10:00N 26°08' W 079°33'11 7.4
2020-Mar-24 08:30N 26°04' W 079°45'4 7.8
2020-Mar-24 08:00N 26°02' W 079°49'4 7.9
2020-Mar-24 07:30N 25°60' W 079°52'14 6.8
2020-Mar-24 05:30N 25°49' W 080°01'4 3.7
2020-Mar-24 04:30N 25°46' W 080°04'11 3.5
2020-Mar-24 01:30N 25°51' W 079°54'3 3.1
2020-Mar-24 00:30N 25°53' W 079°51'5 5.0
2020-Mar-23 23:30N 25°48' W 079°50'17 6.6
2020-Mar-23 21:00N 25°31' W 079°52'  
2020-Mar-18 09:04N 21°33' W 089°17'0 4.7
2020-Mar-18 09:00N 21°33' W 089°17'2 4.8
2020-Mar-18 08:30N 21°32' W 089°20'22 4.5
2020-Mar-18 03:30N 21°23' W 089°41'3 2.7
2020-Mar-18 02:30N 21°21' W 089°40'  
Track history (hours):
 
Tides and Currents Weather Stations Pressure Air Temp Water Temp Dewpoint Dewpoint Depression Visibility Wind Speed Wind Dir Waves Ship Positions

Gunilla (Sweden)

Ship's website: http://www.gunilla.nu/engelsk/frameset_english.htm

Last reported at 2020-Mar-24 10:00 UTC. Time now 2020-Apr-06 12:18 UTC.
Position N 26°08' W 079°33'.
Warning: this ship's position is 13 days out of date.

Length 49.4 m; beam 8.4 m; draft 2.7 m.

Type: Sailing vessel. MMSI: 265318000.

Date/timePositionNaut miles runAvg speedWind from/ knotsBaromVisibWave heightAir tempDewpointWater temp
2020-Mar-24 10:00N 26°08' W 079°33'11 7.4
2020-Mar-24 08:30N 26°04' W 079°45'4 7.8
2020-Mar-24 08:00N 26°02' W 079°49'4 7.9
2020-Mar-24 07:30N 25°60' W 079°52'14 6.8
2020-Mar-24 05:30N 25°49' W 080°01'4 3.7
2020-Mar-24 04:30N 25°46' W 080°04'11 3.5
2020-Mar-24 01:30N 25°51' W 079°54'3 3.1
2020-Mar-24 00:30N 25°53' W 079°51'5 5.0
2020-Mar-23 23:30N 25°48' W 079°50'17 6.6
2020-Mar-23 21:00N 25°31' W 079°52'  
2020-Mar-18 09:04N 21°33' W 089°17'0 4.7
2020-Mar-18 09:00N 21°33' W 089°17'2 4.8
2020-Mar-18 08:30N 21°32' W 089°20'22 4.5
2020-Mar-18 03:30N 21°23' W 089°41'3 2.7
2020-Mar-18 02:30N 21°21' W 089°40'  

Dump ship's entire track history